sensor_id;sensor_type;location;lat;lon;timestamp;P1;durP1;ratioP1;P2;durP2;ratioP2
72464;SDS011;60471;52.150;4.508;2023-10-19T00:02:07;43.30;;;27.02;;
72464;SDS011;60471;52.150;4.508;2023-10-19T00:04:33;36.55;;;23.98;;
72464;SDS011;60471;52.150;4.508;2023-10-19T00:07:01;48.70;;;28.15;;
72464;SDS011;60471;52.150;4.508;2023-10-19T00:09:32;45.77;;;24.50;;
72464;SDS011;60471;52.150;4.508;2023-10-19T00:12:05;40.70;;;27.02;;
72464;SDS011;60471;52.150;4.508;2023-10-19T00:14:34;35.85;;;24.85;;
72464;SDS011;60471;52.150;4.508;2023-10-19T00:17:01;45.38;;;28.65;;
72464;SDS011;60471;52.150;4.508;2023-10-19T00:19:32;42.88;;;28.73;;
72464;SDS011;60471;52.150;4.508;2023-10-19T00:22:05;47.75;;;36.00;;
72464;SDS011;60471;52.150;4.508;2023-10-19T00:24:34;38.20;;;24.95;;
72464;SDS011;60471;52.150;4.508;2023-10-19T00:27:01;40.75;;;25.77;;
72464;SDS011;60471;52.150;4.508;2023-10-19T00:29:36;46.70;;;30.05;;
72464;SDS011;60471;52.150;4.508;2023-10-19T00:32:15;42.60;;;26.52;;
72464;SDS011;60471;52.150;4.508;2023-10-19T00:34:43;43.85;;;28.63;;
72464;SDS011;60471;52.150;4.508;2023-10-19T00:37:17;53.30;;;37.92;;
72464;SDS011;60471;52.150;4.508;2023-10-19T00:39:52;50.40;;;29.40;;
72464;SDS011;60471;52.150;4.508;2023-10-19T00:42:20;53.58;;;33.55;;
72464;SDS011;60471;52.150;4.508;2023-10-19T00:44:55;52.60;;;31.88;;
72464;SDS011;60471;52.150;4.508;2023-10-19T00:47:30;51.47;;;33.35;;
72464;SDS011;60471;52.150;4.508;2023-10-19T00:50:06;48.88;;;29.67;;
72464;SDS011;60471;52.150;4.508;2023-10-19T00:52:40;54.40;;;30.58;;
72464;SDS011;60471;52.150;4.508;2023-10-19T00:55:15;51.60;;;35.75;;
72464;SDS011;60471;52.150;4.508;2023-10-19T00:57:51;55.20;;;35.55;;
72464;SDS011;60471;52.150;4.508;2023-10-19T01:00:20;57.38;;;29.83;;
72464;SDS011;60471;52.150;4.508;2023-10-19T01:03:00;49.42;;;29.75;;
72464;SDS011;60471;52.150;4.508;2023-10-19T01:05:30;51.97;;;34.97;;
72464;SDS011;60471;52.150;4.508;2023-10-19T01:10:45;47.08;;;25.20;;
72464;SDS011;60471;52.150;4.508;2023-10-19T01:13:12;67.38;;;41.90;;
72464;SDS011;60471;52.150;4.508;2023-10-19T01:15:38;71.30;;;42.63;;
72464;SDS011;60471;52.150;4.508;2023-10-19T01:18:05;88.80;;;47.90;;
72464;SDS011;60471;52.150;4.508;2023-10-19T01:20:33;65.18;;;42.88;;
72464;SDS011;60471;52.150;4.508;2023-10-19T01:23:13;70.57;;;37.35;;
72464;SDS011;60471;52.150;4.508;2023-10-19T01:25:55;78.30;;;39.03;;
72464;SDS011;60471;52.150;4.508;2023-10-19T01:28:26;110.80;;;40.90;;
72464;SDS011;60471;52.150;4.508;2023-10-19T01:31:09;82.90;;;50.15;;
72464;SDS011;60471;52.150;4.508;2023-10-19T01:33:41;81.15;;;48.47;;
72464;SDS011;60471;52.150;4.508;2023-10-19T01:36:10;75.18;;;37.90;;
72464;SDS011;60471;52.150;4.508;2023-10-19T01:38:40;90.95;;;51.50;;
72464;SDS011;60471;52.150;4.508;2023-10-19T01:41:08;121.57;;;57.75;;
72464;SDS011;60471;52.150;4.508;2023-10-19T01:43:45;81.78;;;39.92;;
72464;SDS011;60471;52.150;4.508;2023-10-19T01:46:19;191.05;;;65.10;;
72464;SDS011;60471;52.150;4.508;2023-10-19T01:48:48;88.70;;;52.60;;
72464;SDS011;60471;52.150;4.508;2023-10-19T01:51:20;86.95;;;53.25;;
72464;SDS011;60471;52.150;4.508;2023-10-19T01:53:50;55.40;;;41.45;;
72464;SDS011;60471;52.150;4.508;2023-10-19T01:56:17;80.70;;;48.58;;
72464;SDS011;60471;52.150;4.508;2023-10-19T01:58:45;73.95;;;47.47;;
72464;SDS011;60471;52.150;4.508;2023-10-19T02:01:12;61.78;;;42.90;;
72464;SDS011;60471;52.150;4.508;2023-10-19T02:03:48;82.13;;;47.53;;
72464;SDS011;60471;52.150;4.508;2023-10-19T02:06:26;71.90;;;45.70;;
72464;SDS011;60471;52.150;4.508;2023-10-19T02:09:07;57.50;;;39.58;;
72464;SDS011;60471;52.150;4.508;2023-10-19T02:11:50;59.92;;;38.83;;
72464;SDS011;60471;52.150;4.508;2023-10-19T02:14:21;39.10;;;23.50;;
72464;SDS011;60471;52.150;4.508;2023-10-19T02:16:50;45.53;;;31.63;;
72464;SDS011;60471;52.150;4.508;2023-10-19T02:19:28;30.63;;;20.65;;
72464;SDS011;60471;52.150;4.508;2023-10-19T02:21:56;24.60;;;16.95;;
72464;SDS011;60471;52.150;4.508;2023-10-19T02:24:25;17.17;;;10.57;;
72464;SDS011;60471;52.150;4.508;2023-10-19T02:26:54;23.85;;;10.82;;
72464;SDS011;60471;52.150;4.508;2023-10-19T02:29:23;15.25;;;6.65;;
72464;SDS011;60471;52.150;4.508;2023-10-19T02:31:51;13.80;;;6.35;;
72464;SDS011;60471;52.150;4.508;2023-10-19T02:34:18;15.23;;;5.55;;
72464;SDS011;60471;52.150;4.508;2023-10-19T02:36:45;14.75;;;5.38;;
72464;SDS011;60471;52.150;4.508;2023-10-19T02:39:14;12.98;;;4.38;;
72464;SDS011;60471;52.150;4.508;2023-10-19T02:41:43;10.40;;;4.10;;
72464;SDS011;60471;52.150;4.508;2023-10-19T02:44:14;15.32;;;3.50;;
72464;SDS011;60471;52.150;4.508;2023-10-19T02:46:56;12.82;;;3.85;;
72464;SDS011;60471;52.150;4.508;2023-10-19T02:49:25;10.75;;;3.30;;
72464;SDS011;60471;52.150;4.508;2023-10-19T02:51:56;14.43;;;3.40;;
72464;SDS011;60471;52.150;4.508;2023-10-19T02:54:29;16.10;;;3.67;;
72464;SDS011;60471;52.150;4.508;2023-10-19T02:56:58;10.85;;;2.90;;
72464;SDS011;60471;52.150;4.508;2023-10-19T02:59:26;13.80;;;2.95;;
72464;SDS011;60471;52.150;4.508;2023-10-19T03:03:59;10.23;;;2.60;;
72464;SDS011;60471;52.150;4.508;2023-10-19T03:08:29;9.48;;;2.28;;
72464;SDS011;60471;52.150;4.508;2023-10-19T03:13:08;10.77;;;2.05;;
72464;SDS011;60471;52.150;4.508;2023-10-19T03:16:30;8.57;;;2.10;;
72464;SDS011;60471;52.150;4.508;2023-10-19T03:20:53;10.73;;;1.90;;
72464;SDS011;60471;52.150;4.508;2023-10-19T03:26:49;9.65;;;2.33;;
72464;SDS011;60471;52.150;4.508;2023-10-19T03:29:49;9.27;;;2.33;;
72464;SDS011;60471;52.150;4.508;2023-10-19T03:32:24;10.13;;;2.15;;
72464;SDS011;60471;52.150;4.508;2023-10-19T03:35:28;9.02;;;2.35;;
72464;SDS011;60471;52.150;4.508;2023-10-19T03:37:55;9.55;;;2.20;;
72464;SDS011;60471;52.150;4.508;2023-10-19T03:40:27;10.00;;;2.55;;
72464;SDS011;60471;52.150;4.508;2023-10-19T03:42:56;8.77;;;2.47;;
72464;SDS011;60471;52.150;4.508;2023-10-19T03:45:43;10.10;;;2.28;;
72464;SDS011;60471;52.150;4.508;2023-10-19T03:48:17;9.77;;;2.20;;
72464;SDS011;60471;52.150;4.508;2023-10-19T03:50:50;10.48;;;2.22;;
72464;SDS011;60471;52.150;4.508;2023-10-19T03:53:19;8.52;;;2.78;;
72464;SDS011;60471;52.150;4.508;2023-10-19T03:55:47;9.07;;;2.05;;
72464;SDS011;60471;52.150;4.508;2023-10-19T03:58:16;9.25;;;2.10;;
72464;SDS011;60471;52.150;4.508;2023-10-19T04:00:49;7.40;;;2.10;;
72464;SDS011;60471;52.150;4.508;2023-10-19T04:03:15;11.07;;;2.70;;
72464;SDS011;60471;52.150;4.508;2023-10-19T04:05:50;10.52;;;2.15;;
72464;SDS011;60471;52.150;4.508;2023-10-19T04:08:18;7.03;;;2.10;;
72464;SDS011;60471;52.150;4.508;2023-10-19T04:10:48;11.25;;;2.15;;
72464;SDS011;60471;52.150;4.508;2023-10-19T04:13:34;10.57;;;2.25;;
72464;SDS011;60471;52.150;4.508;2023-10-19T04:16:03;11.65;;;2.10;;
72464;SDS011;60471;52.150;4.508;2023-10-19T04:18:35;11.15;;;2.13;;
72464;SDS011;60471;52.150;4.508;2023-10-19T04:21:04;14.80;;;2.28;;
72464;SDS011;60471;52.150;4.508;2023-10-19T04:23:30;10.27;;;2.20;;
72464;SDS011;60471;52.150;4.508;2023-10-19T04:26:00;11.02;;;2.35;;
72464;SDS011;60471;52.150;4.508;2023-10-19T04:28:37;10.63;;;2.42;;
72464;SDS011;60471;52.150;4.508;2023-10-19T04:31:18;10.48;;;2.13;;
72464;SDS011;60471;52.150;4.508;2023-10-19T04:33:45;10.25;;;2.20;;
72464;SDS011;60471;52.150;4.508;2023-10-19T04:36:12;14.25;;;2.65;;
72464;SDS011;60471;52.150;4.508;2023-10-19T04:38:39;11.73;;;2.45;;
72464;SDS011;60471;52.150;4.508;2023-10-19T04:41:10;10.77;;;2.45;;
72464;SDS011;60471;52.150;4.508;2023-10-19T04:43:37;13.02;;;2.50;;
72464;SDS011;60471;52.150;4.508;2023-10-19T04:46:09;9.98;;;2.38;;
72464;SDS011;60471;52.150;4.508;2023-10-19T04:48:37;12.90;;;2.47;;
72464;SDS011;60471;52.150;4.508;2023-10-19T04:51:06;17.33;;;2.85;;
72464;SDS011;60471;52.150;4.508;2023-10-19T04:53:35;12.73;;;2.30;;
72464;SDS011;60471;52.150;4.508;2023-10-19T04:56:14;14.23;;;2.33;;
72464;SDS011;60471;52.150;4.508;2023-10-19T04:58:40;10.90;;;2.20;;
72464;SDS011;60471;52.150;4.508;2023-10-19T05:01:07;8.00;;;2.00;;
72464;SDS011;60471;52.150;4.508;2023-10-19T05:03:33;14.50;;;2.30;;
72464;SDS011;60471;52.150;4.508;2023-10-19T05:06:00;16.77;;;2.65;;
72464;SDS011;60471;52.150;4.508;2023-10-19T05:08:27;13.13;;;2.40;;
72464;SDS011;60471;52.150;4.508;2023-10-19T05:10:53;12.68;;;2.30;;
72464;SDS011;60471;52.150;4.508;2023-10-19T05:13:25;13.10;;;2.45;;
72464;SDS011;60471;52.150;4.508;2023-10-19T05:15:53;13.70;;;2.63;;
72464;SDS011;60471;52.150;4.508;2023-10-19T05:20:54;15.02;;;2.50;;
72464;SDS011;60471;52.150;4.508;2023-10-19T05:23:23;11.23;;;2.30;;
72464;SDS011;60471;52.150;4.508;2023-10-19T05:25:50;11.40;;;2.88;;
72464;SDS011;60471;52.150;4.508;2023-10-19T05:28:19;11.80;;;2.30;;
72464;SDS011;60471;52.150;4.508;2023-10-19T05:30:47;14.57;;;2.83;;
72464;SDS011;60471;52.150;4.508;2023-10-19T05:33:14;10.20;;;2.10;;
72464;SDS011;60471;52.150;4.508;2023-10-19T05:35:41;13.85;;;2.30;;
72464;SDS011;60471;52.150;4.508;2023-10-19T05:38:07;13.77;;;2.20;;
72464;SDS011;60471;52.150;4.508;2023-10-19T05:40:33;13.95;;;2.40;;
72464;SDS011;60471;52.150;4.508;2023-10-19T05:43:01;10.50;;;2.20;;
72464;SDS011;60471;52.150;4.508;2023-10-19T05:45:28;12.10;;;2.22;;
72464;SDS011;60471;52.150;4.508;2023-10-19T05:47:55;12.98;;;2.20;;
72464;SDS011;60471;52.150;4.508;2023-10-19T05:50:25;11.05;;;2.58;;
72464;SDS011;60471;52.150;4.508;2023-10-19T05:52:54;13.88;;;2.40;;
72464;SDS011;60471;52.150;4.508;2023-10-19T05:55:20;12.27;;;2.00;;
72464;SDS011;60471;52.150;4.508;2023-10-19T05:57:50;13.73;;;2.60;;
72464;SDS011;60471;52.150;4.508;2023-10-19T06:00:16;12.75;;;2.50;;
72464;SDS011;60471;52.150;4.508;2023-10-19T06:02:44;15.25;;;2.38;;
72464;SDS011;60471;52.150;4.508;2023-10-19T06:05:12;15.05;;;2.72;;
72464;SDS011;60471;52.150;4.508;2023-10-19T06:07:43;13.50;;;2.40;;
72464;SDS011;60471;52.150;4.508;2023-10-19T06:10:11;13.35;;;2.25;;
72464;SDS011;60471;52.150;4.508;2023-10-19T06:12:42;13.52;;;2.92;;
72464;SDS011;60471;52.150;4.508;2023-10-19T06:15:09;16.80;;;2.42;;
72464;SDS011;60471;52.150;4.508;2023-10-19T06:17:38;12.32;;;2.70;;
72464;SDS011;60471;52.150;4.508;2023-10-19T06:20:07;11.40;;;2.42;;
72464;SDS011;60471;52.150;4.508;2023-10-19T06:22:46;12.48;;;2.35;;
72464;SDS011;60471;52.150;4.508;2023-10-19T06:25:19;12.40;;;2.53;;
72464;SDS011;60471;52.150;4.508;2023-10-19T06:27:47;14.95;;;3.13;;
72464;SDS011;60471;52.150;4.508;2023-10-19T06:30:14;15.73;;;2.60;;
72464;SDS011;60471;52.150;4.508;2023-10-19T06:32:49;16.50;;;2.35;;
72464;SDS011;60471;52.150;4.508;2023-10-19T06:35:20;11.00;;;1.93;;
72464;SDS011;60471;52.150;4.508;2023-10-19T06:37:47;13.50;;;2.90;;
72464;SDS011;60471;52.150;4.508;2023-10-19T06:40:14;17.73;;;3.13;;
72464;SDS011;60471;52.150;4.508;2023-10-19T06:42:45;14.25;;;2.50;;
72464;SDS011;60471;52.150;4.508;2023-10-19T06:45:12;12.85;;;2.55;;
72464;SDS011;60471;52.150;4.508;2023-10-19T06:47:43;15.23;;;2.28;;
72464;SDS011;60471;52.150;4.508;2023-10-19T06:50:19;14.10;;;2.20;;
72464;SDS011;60471;52.150;4.508;2023-10-19T06:52:48;19.75;;;3.08;;
72464;SDS011;60471;52.150;4.508;2023-10-19T06:55:16;12.15;;;2.58;;
72464;SDS011;60471;52.150;4.508;2023-10-19T06:57:49;13.52;;;2.40;;
72464;SDS011;60471;52.150;4.508;2023-10-19T07:00:19;11.55;;;2.80;;
72464;SDS011;60471;52.150;4.508;2023-10-19T07:02:48;13.52;;;2.38;;
72464;SDS011;60471;52.150;4.508;2023-10-19T07:05:19;15.40;;;2.40;;
72464;SDS011;60471;52.150;4.508;2023-10-19T07:07:56;12.48;;;2.70;;
72464;SDS011;60471;52.150;4.508;2023-10-19T07:10:25;11.30;;;2.30;;
72464;SDS011;60471;52.150;4.508;2023-10-19T07:12:53;14.70;;;2.78;;
72464;SDS011;60471;52.150;4.508;2023-10-19T07:15:22;15.25;;;2.50;;
72464;SDS011;60471;52.150;4.508;2023-10-19T07:17:49;13.80;;;3.00;;
72464;SDS011;60471;52.150;4.508;2023-10-19T07:20:18;15.50;;;2.55;;
72464;SDS011;60471;52.150;4.508;2023-10-19T07:22:51;12.32;;;2.58;;
72464;SDS011;60471;52.150;4.508;2023-10-19T07:25:19;15.10;;;2.92;;
72464;SDS011;60471;52.150;4.508;2023-10-19T07:27:48;11.65;;;2.95;;
72464;SDS011;60471;52.150;4.508;2023-10-19T07:30:16;12.27;;;2.42;;
72464;SDS011;60471;52.150;4.508;2023-10-19T07:32:50;12.90;;;2.60;;
72464;SDS011;60471;52.150;4.508;2023-10-19T07:35:24;14.18;;;3.00;;
72464;SDS011;60471;52.150;4.508;2023-10-19T07:37:52;13.55;;;2.58;;
72464;SDS011;60471;52.150;4.508;2023-10-19T07:40:19;12.13;;;3.03;;
72464;SDS011;60471;52.150;4.508;2023-10-19T07:42:46;20.63;;;3.35;;
72464;SDS011;60471;52.150;4.508;2023-10-19T07:45:14;15.15;;;2.90;;
72464;SDS011;60471;52.150;4.508;2023-10-19T07:47:41;15.27;;;3.28;;
72464;SDS011;60471;52.150;4.508;2023-10-19T07:50:11;13.00;;;2.80;;
72464;SDS011;60471;52.150;4.508;2023-10-19T07:52:45;17.92;;;3.42;;
72464;SDS011;60471;52.150;4.508;2023-10-19T07:55:21;16.38;;;3.33;;
72464;SDS011;60471;52.150;4.508;2023-10-19T07:57:49;15.05;;;2.90;;
72464;SDS011;60471;52.150;4.508;2023-10-19T08:00:16;17.55;;;3.15;;
72464;SDS011;60471;52.150;4.508;2023-10-19T08:02:46;15.55;;;3.40;;
72464;SDS011;60471;52.150;4.508;2023-10-19T08:05:13;16.20;;;2.83;;
72464;SDS011;60471;52.150;4.508;2023-10-19T08:07:41;14.02;;;3.10;;
72464;SDS011;60471;52.150;4.508;2023-10-19T08:10:09;12.75;;;3.03;;
72464;SDS011;60471;52.150;4.508;2023-10-19T08:12:38;12.43;;;2.92;;
72464;SDS011;60471;52.150;4.508;2023-10-19T08:15:09;15.47;;;3.60;;
72464;SDS011;60471;52.150;4.508;2023-10-19T08:17:40;12.55;;;3.03;;
72464;SDS011;60471;52.150;4.508;2023-10-19T08:20:13;19.63;;;3.05;;
72464;SDS011;60471;52.150;4.508;2023-10-19T08:22:52;11.48;;;3.00;;
72464;SDS011;60471;52.150;4.508;2023-10-19T08:25:23;13.60;;;3.33;;
72464;SDS011;60471;52.150;4.508;2023-10-19T08:27:49;14.40;;;2.97;;
72464;SDS011;60471;52.150;4.508;2023-10-19T08:30:17;15.77;;;3.30;;
72464;SDS011;60471;52.150;4.508;2023-10-19T08:32:46;14.93;;;3.15;;
72464;SDS011;60471;52.150;4.508;2023-10-19T08:35:14;15.93;;;3.63;;
72464;SDS011;60471;52.150;4.508;2023-10-19T08:37:43;18.70;;;3.38;;
72464;SDS011;60471;52.150;4.508;2023-10-19T08:40:12;13.40;;;3.63;;
72464;SDS011;60471;52.150;4.508;2023-10-19T08:42:43;15.70;;;3.53;;
72464;SDS011;60471;52.150;4.508;2023-10-19T08:45:11;14.75;;;3.10;;
72464;SDS011;60471;52.150;4.508;2023-10-19T08:47:49;16.15;;;3.50;;
72464;SDS011;60471;52.150;4.508;2023-10-19T08:50:24;19.38;;;3.80;;
72464;SDS011;60471;52.150;4.508;2023-10-19T08:52:56;12.68;;;3.20;;
72464;SDS011;60471;52.150;4.508;2023-10-19T08:55:25;13.55;;;3.53;;
72464;SDS011;60471;52.150;4.508;2023-10-19T08:57:52;20.20;;;3.95;;
72464;SDS011;60471;52.150;4.508;2023-10-19T09:00:19;13.10;;;3.65;;
72464;SDS011;60471;52.150;4.508;2023-10-19T09:02:53;17.45;;;4.00;;
72464;SDS011;60471;52.150;4.508;2023-10-19T09:05:22;14.77;;;3.65;;
72464;SDS011;60471;52.150;4.508;2023-10-19T09:07:49;15.18;;;3.95;;
72464;SDS011;60471;52.150;4.508;2023-10-19T09:10:25;16.80;;;3.88;;
72464;SDS011;60471;52.150;4.508;2023-10-19T09:13:00;19.52;;;3.58;;
72464;SDS011;60471;52.150;4.508;2023-10-19T09:15:35;16.08;;;3.88;;
72464;SDS011;60471;52.150;4.508;2023-10-19T09:18:16;21.58;;;4.60;;
72464;SDS011;60471;52.150;4.508;2023-10-19T09:20:45;16.40;;;3.38;;
72464;SDS011;60471;52.150;4.508;2023-10-19T09:23:25;16.80;;;3.72;;
72464;SDS011;60471;52.150;4.508;2023-10-19T09:25:55;15.02;;;3.30;;
72464;SDS011;60471;52.150;4.508;2023-10-19T09:28:24;17.00;;;4.00;;
72464;SDS011;60471;52.150;4.508;2023-10-19T09:30:50;19.33;;;3.83;;
72464;SDS011;60471;52.150;4.508;2023-10-19T09:33:17;14.18;;;3.90;;
72464;SDS011;60471;52.150;4.508;2023-10-19T09:35:47;15.77;;;3.97;;
72464;SDS011;60471;52.150;4.508;2023-10-19T09:38:17;19.83;;;3.97;;
72464;SDS011;60471;52.150;4.508;2023-10-19T09:40:54;17.67;;;3.95;;
72464;SDS011;60471;52.150;4.508;2023-10-19T09:43:34;19.48;;;4.03;;
72464;SDS011;60471;52.150;4.508;2023-10-19T09:46:07;19.05;;;3.78;;
72464;SDS011;60471;52.150;4.508;2023-10-19T09:48:40;15.63;;;3.83;;
72464;SDS011;60471;52.150;4.508;2023-10-19T09:51:11;15.57;;;3.60;;
72464;SDS011;60471;52.150;4.508;2023-10-19T09:53:38;16.85;;;3.78;;
72464;SDS011;60471;52.150;4.508;2023-10-19T09:56:06;13.75;;;3.90;;
72464;SDS011;60471;52.150;4.508;2023-10-19T09:58:47;19.50;;;3.80;;
72464;SDS011;60471;52.150;4.508;2023-10-19T10:01:19;21.80;;;4.10;;
72464;SDS011;60471;52.150;4.508;2023-10-19T10:03:50;18.13;;;3.92;;
72464;SDS011;60471;52.150;4.508;2023-10-19T10:06:28;18.25;;;4.72;;
72464;SDS011;60471;52.150;4.508;2023-10-19T10:09:19;22.33;;;4.57;;
72464;SDS011;60471;52.150;4.508;2023-10-19T10:11:49;20.60;;;4.75;;
72464;SDS011;60471;52.150;4.508;2023-10-19T10:14:27;17.73;;;3.72;;
72464;SDS011;60471;52.150;4.508;2023-10-19T10:19:28;23.50;;;4.65;;
72464;SDS011;60471;52.150;4.508;2023-10-19T10:22:04;24.05;;;4.57;;
72464;SDS011;60471;52.150;4.508;2023-10-19T10:24:46;18.52;;;4.47;;
72464;SDS011;60471;52.150;4.508;2023-10-19T10:27:19;19.75;;;4.30;;
72464;SDS011;60471;52.150;4.508;2023-10-19T10:29:58;18.42;;;3.67;;
72464;SDS011;60471;52.150;4.508;2023-10-19T10:32:51;19.70;;;4.18;;
72464;SDS011;60471;52.150;4.508;2023-10-19T10:38:03;16.92;;;3.88;;
72464;SDS011;60471;52.150;4.508;2023-10-19T10:40:41;14.43;;;3.58;;
72464;SDS011;60471;52.150;4.508;2023-10-19T10:43:13;21.02;;;4.68;;
72464;SDS011;60471;52.150;4.508;2023-10-19T10:45:41;20.10;;;4.53;;
72464;SDS011;60471;52.150;4.508;2023-10-19T10:48:11;17.55;;;4.60;;
72464;SDS011;60471;52.150;4.508;2023-10-19T10:50:48;18.52;;;3.88;;
72464;SDS011;60471;52.150;4.508;2023-10-19T10:53:15;15.00;;;3.42;;
72464;SDS011;60471;52.150;4.508;2023-10-19T10:55:41;16.88;;;3.83;;
72464;SDS011;60471;52.150;4.508;2023-10-19T10:58:08;18.63;;;3.75;;
72464;SDS011;60471;52.150;4.508;2023-10-19T11:00:41;21.20;;;3.88;;
72464;SDS011;60471;52.150;4.508;2023-10-19T11:03:17;18.30;;;3.80;;
72464;SDS011;60471;52.150;4.508;2023-10-19T11:05:43;16.95;;;3.63;;
72464;SDS011;60471;52.150;4.508;2023-10-19T11:08:11;17.33;;;3.90;;
72464;SDS011;60471;52.150;4.508;2023-10-19T11:10:47;22.25;;;4.82;;
72464;SDS011;60471;52.150;4.508;2023-10-19T11:13:14;14.55;;;3.80;;
72464;SDS011;60471;52.150;4.508;2023-10-19T11:15:54;16.90;;;4.68;;
72464;SDS011;60471;52.150;4.508;2023-10-19T11:18:37;18.05;;;3.60;;
72464;SDS011;60471;52.150;4.508;2023-10-19T11:21:11;16.13;;;3.50;;
72464;SDS011;60471;52.150;4.508;2023-10-19T11:23:41;16.85;;;2.90;;
72464;SDS011;60471;52.150;4.508;2023-10-19T11:26:11;16.00;;;3.22;;
72464;SDS011;60471;52.150;4.508;2023-10-19T11:28:40;17.17;;;3.83;;
72464;SDS011;60471;52.150;4.508;2023-10-19T11:31:16;19.48;;;3.55;;
72464;SDS011;60471;52.150;4.508;2023-10-19T11:33:49;16.45;;;3.22;;
72464;SDS011;60471;52.150;4.508;2023-10-19T11:36:19;12.95;;;3.13;;
72464;SDS011;60471;52.150;4.508;2023-10-19T11:38:48;15.82;;;2.67;;
72464;SDS011;60471;52.150;4.508;2023-10-19T11:41:17;17.23;;;3.10;;
72464;SDS011;60471;52.150;4.508;2023-10-19T11:43:44;19.20;;;3.20;;
72464;SDS011;60471;52.150;4.508;2023-10-19T11:46:12;15.18;;;3.22;;
72464;SDS011;60471;52.150;4.508;2023-10-19T11:48:43;19.20;;;3.77;;
72464;SDS011;60471;52.150;4.508;2023-10-19T11:51:10;13.88;;;2.78;;
72464;SDS011;60471;52.150;4.508;2023-10-19T11:53:40;17.13;;;2.85;;
72464;SDS011;60471;52.150;4.508;2023-10-19T11:56:09;17.35;;;3.92;;
72464;SDS011;60471;52.150;4.508;2023-10-19T11:58:38;21.65;;;3.78;;
72464;SDS011;60471;52.150;4.508;2023-10-19T12:01:08;17.05;;;3.53;;
72464;SDS011;60471;52.150;4.508;2023-10-19T12:03:38;17.42;;;3.40;;
72464;SDS011;60471;52.150;4.508;2023-10-19T12:06:06;19.10;;;3.92;;
72464;SDS011;60471;52.150;4.508;2023-10-19T12:08:34;14.75;;;3.50;;
72464;SDS011;60471;52.150;4.508;2023-10-19T12:11:02;18.85;;;3.40;;
72464;SDS011;60471;52.150;4.508;2023-10-19T12:13:30;19.10;;;3.75;;
72464;SDS011;60471;52.150;4.508;2023-10-19T12:15:59;19.88;;;3.63;;
72464;SDS011;60471;52.150;4.508;2023-10-19T12:18:25;21.38;;;3.72;;
72464;SDS011;60471;52.150;4.508;2023-10-19T12:20:52;17.40;;;3.58;;
72464;SDS011;60471;52.150;4.508;2023-10-19T12:23:22;21.17;;;3.65;;
72464;SDS011;60471;52.150;4.508;2023-10-19T12:25:51;24.10;;;4.10;;
72464;SDS011;60471;52.150;4.508;2023-10-19T12:28:18;18.67;;;3.42;;
72464;SDS011;60471;52.150;4.508;2023-10-19T12:30:45;22.15;;;3.53;;
72464;SDS011;60471;52.150;4.508;2023-10-19T12:33:13;17.85;;;3.10;;
72464;SDS011;60471;52.150;4.508;2023-10-19T12:35:42;17.58;;;3.47;;
72464;SDS011;60471;52.150;4.508;2023-10-19T12:38:15;20.70;;;3.90;;
72464;SDS011;60471;52.150;4.508;2023-10-19T12:40:42;15.70;;;3.50;;
72464;SDS011;60471;52.150;4.508;2023-10-19T12:43:12;29.83;;;3.53;;
72464;SDS011;60471;52.150;4.508;2023-10-19T12:45:44;23.83;;;3.83;;
72464;SDS011;60471;52.150;4.508;2023-10-19T12:48:16;20.25;;;4.63;;
72464;SDS011;60471;52.150;4.508;2023-10-19T12:50:43;21.52;;;3.92;;
72464;SDS011;60471;52.150;4.508;2023-10-19T12:53:09;18.70;;;3.38;;
72464;SDS011;60471;52.150;4.508;2023-10-19T12:55:35;24.05;;;3.78;;
72464;SDS011;60471;52.150;4.508;2023-10-19T12:58:04;23.40;;;3.85;;
72464;SDS011;60471;52.150;4.508;2023-10-19T13:00:35;20.07;;;3.93;;
72464;SDS011;60471;52.150;4.508;2023-10-19T13:03:03;20.98;;;4.10;;
72464;SDS011;60471;52.150;4.508;2023-10-19T13:05:34;17.98;;;3.83;;
72464;SDS011;60471;52.150;4.508;2023-10-19T13:08:01;19.60;;;3.45;;
72464;SDS011;60471;52.150;4.508;2023-10-19T13:10:29;22.35;;;4.25;;
72464;SDS011;60471;52.150;4.508;2023-10-19T13:13:01;19.88;;;4.13;;
72464;SDS011;60471;52.150;4.508;2023-10-19T13:15:32;22.60;;;4.15;;
72464;SDS011;60471;52.150;4.508;2023-10-19T13:18:04;20.95;;;3.90;;
72464;SDS011;60471;52.150;4.508;2023-10-19T13:20:33;25.17;;;4.05;;
72464;SDS011;60471;52.150;4.508;2023-10-19T13:23:00;17.38;;;3.10;;
72464;SDS011;60471;52.150;4.508;2023-10-19T13:25:30;19.65;;;3.70;;
72464;SDS011;60471;52.150;4.508;2023-10-19T13:28:26;21.45;;;3.55;;
72464;SDS011;60471;52.150;4.508;2023-10-19T13:30:53;23.02;;;4.13;;
72464;SDS011;60471;52.150;4.508;2023-10-19T13:33:21;22.63;;;4.03;;
72464;SDS011;60471;52.150;4.508;2023-10-19T13:35:49;20.10;;;3.88;;
72464;SDS011;60471;52.150;4.508;2023-10-19T13:38:16;23.08;;;3.88;;
72464;SDS011;60471;52.150;4.508;2023-10-19T13:40:45;24.25;;;4.10;;
72464;SDS011;60471;52.150;4.508;2023-10-19T13:43:13;19.98;;;3.95;;
72464;SDS011;60471;52.150;4.508;2023-10-19T13:45:40;17.05;;;3.60;;
72464;SDS011;60471;52.150;4.508;2023-10-19T13:48:11;27.33;;;4.03;;
72464;SDS011;60471;52.150;4.508;2023-10-19T13:50:45;20.50;;;4.30;;
72464;SDS011;60471;52.150;4.508;2023-10-19T13:53:14;18.35;;;3.75;;
72464;SDS011;60471;52.150;4.508;2023-10-19T13:55:42;18.27;;;4.07;;
72464;SDS011;60471;52.150;4.508;2023-10-19T13:58:09;17.00;;;3.83;;
72464;SDS011;60471;52.150;4.508;2023-10-19T14:00:36;18.55;;;4.18;;
72464;SDS011;60471;52.150;4.508;2023-10-19T14:03:06;15.13;;;3.97;;
72464;SDS011;60471;52.150;4.508;2023-10-19T14:05:36;23.33;;;4.38;;
72464;SDS011;60471;52.150;4.508;2023-10-19T14:08:05;20.20;;;4.03;;
72464;SDS011;60471;52.150;4.508;2023-10-19T14:10:33;22.88;;;4.50;;
72464;SDS011;60471;52.150;4.508;2023-10-19T14:13:01;21.40;;;3.83;;
72464;SDS011;60471;52.150;4.508;2023-10-19T14:15:28;19.63;;;3.75;;
72464;SDS011;60471;52.150;4.508;2023-10-19T14:17:55;22.30;;;3.88;;
72464;SDS011;60471;52.150;4.508;2023-10-19T14:20:28;20.25;;;4.28;;
72464;SDS011;60471;52.150;4.508;2023-10-19T14:22:56;17.10;;;3.47;;
72464;SDS011;60471;52.150;4.508;2023-10-19T14:25:23;16.20;;;3.92;;
72464;SDS011;60471;52.150;4.508;2023-10-19T14:27:50;20.02;;;4.18;;
72464;SDS011;60471;52.150;4.508;2023-10-19T14:30:23;24.77;;;4.53;;
72464;SDS011;60471;52.150;4.508;2023-10-19T14:32:52;19.00;;;4.32;;
72464;SDS011;60471;52.150;4.508;2023-10-19T14:35:20;21.25;;;4.68;;
72464;SDS011;60471;52.150;4.508;2023-10-19T14:37:53;21.58;;;4.82;;
72464;SDS011;60471;52.150;4.508;2023-10-19T14:40:25;17.05;;;3.83;;
72464;SDS011;60471;52.150;4.508;2023-10-19T14:42:54;23.00;;;4.63;;
72464;SDS011;60471;52.150;4.508;2023-10-19T14:45:25;22.90;;;3.85;;
72464;SDS011;60471;52.150;4.508;2023-10-19T14:47:56;23.42;;;4.28;;
72464;SDS011;60471;52.150;4.508;2023-10-19T14:50:24;22.55;;;4.57;;
72464;SDS011;60471;52.150;4.508;2023-10-19T14:52:53;24.65;;;4.53;;
72464;SDS011;60471;52.150;4.508;2023-10-19T14:55:23;20.33;;;4.22;;
72464;SDS011;60471;52.150;4.508;2023-10-19T14:57:50;16.33;;;3.83;;
72464;SDS011;60471;52.150;4.508;2023-10-19T15:00:19;18.60;;;4.07;;
72464;SDS011;60471;52.150;4.508;2023-10-19T15:03:00;19.88;;;3.97;;
72464;SDS011;60471;52.150;4.508;2023-10-19T15:05:32;22.02;;;3.97;;
72464;SDS011;60471;52.150;4.508;2023-10-19T15:08:03;18.20;;;4.13;;
72464;SDS011;60471;52.150;4.508;2023-10-19T15:10:31;19.23;;;3.85;;
72464;SDS011;60471;52.150;4.508;2023-10-19T15:12:59;17.52;;;4.05;;
72464;SDS011;60471;52.150;4.508;2023-10-19T15:15:26;18.35;;;3.75;;
72464;SDS011;60471;52.150;4.508;2023-10-19T15:17:54;19.08;;;3.53;;